sensor_id;sensor_type;location;lat;lon;timestamp;P1;durP1;ratioP1;P2;durP2;ratioP2
43325;SDS011;28920;59.862;30.636;2022-10-23T00:00:54;9.05;;;2.40;;
43325;SDS011;28920;59.862;30.636;2022-10-23T00:03:21;4.87;;;2.70;;
43325;SDS011;28920;59.862;30.636;2022-10-23T00:05:48;5.15;;;2.08;;
43325;SDS011;28920;59.862;30.636;2022-10-23T00:10:54;3.55;;;2.28;;
43325;SDS011;28920;59.862;30.636;2022-10-23T00:13:21;5.25;;;2.10;;
43325;SDS011;28920;59.862;30.636;2022-10-23T00:15:48;6.75;;;2.50;;
43325;SDS011;28920;59.862;30.636;2022-10-23T00:18:15;6.05;;;3.25;;
43325;SDS011;28920;59.862;30.636;2022-10-23T00:20:43;4.35;;;2.20;;
43325;SDS011;28920;59.862;30.636;2022-10-23T00:23:12;3.58;;;2.62;;
43325;SDS011;28920;59.862;30.636;2022-10-23T00:25:40;3.75;;;2.58;;
43325;SDS011;28920;59.862;30.636;2022-10-23T00:33:06;5.05;;;2.83;;
43325;SDS011;28920;59.862;30.636;2022-10-23T00:35:33;5.37;;;2.30;;
43325;SDS011;28920;59.862;30.636;2022-10-23T00:37:59;3.45;;;2.12;;
43325;SDS011;28920;59.862;30.636;2022-10-23T00:40:26;3.72;;;2.03;;
43325;SDS011;28920;59.862;30.636;2022-10-23T00:42:53;5.53;;;2.70;;
43325;SDS011;28920;59.862;30.636;2022-10-23T00:45:20;4.22;;;2.42;;
43325;SDS011;28920;59.862;30.636;2022-10-23T00:47:47;4.40;;;2.53;;
43325;SDS011;28920;59.862;30.636;2022-10-23T00:55:13;3.35;;;2.20;;
43325;SDS011;28920;59.862;30.636;2022-10-23T00:57:41;3.90;;;2.55;;
43325;SDS011;28920;59.862;30.636;2022-10-23T01:00:10;4.87;;;3.25;;
43325;SDS011;28920;59.862;30.636;2022-10-23T01:02:37;6.00;;;2.97;;
43325;SDS011;28920;59.862;30.636;2022-10-23T01:05:04;7.50;;;2.95;;
43325;SDS011;28920;59.862;30.636;2022-10-23T01:07:35;6.45;;;2.70;;
43325;SDS011;28920;59.862;30.636;2022-10-23T01:10:05;6.57;;;2.40;;
43325;SDS011;28920;59.862;30.636;2022-10-23T01:17:27;4.55;;;2.53;;
43325;SDS011;28920;59.862;30.636;2022-10-23T01:20:03;10.57;;;2.92;;
43325;SDS011;28920;59.862;30.636;2022-10-23T01:22:49;7.40;;;3.22;;
43325;SDS011;28920;59.862;30.636;2022-10-23T01:25:34;5.30;;;2.65;;
43325;SDS011;28920;59.862;30.636;2022-10-23T01:28:19;8.98;;;3.28;;
43325;SDS011;28920;59.862;30.636;2022-10-23T01:30:52;6.75;;;2.72;;
43325;SDS011;28920;59.862;30.636;2022-10-23T01:36:04;7.28;;;2.70;;
43325;SDS011;28920;59.862;30.636;2022-10-23T01:38:38;3.47;;;2.37;;
43325;SDS011;28920;59.862;30.636;2022-10-23T01:41:12;6.53;;;3.30;;
43325;SDS011;28920;59.862;30.636;2022-10-23T01:43:44;5.25;;;2.75;;
43325;SDS011;28920;59.862;30.636;2022-10-23T01:46:15;5.97;;;2.60;;
43325;SDS011;28920;59.862;30.636;2022-10-23T01:48:45;4.43;;;2.30;;
43325;SDS011;28920;59.862;30.636;2022-10-23T01:51:17;4.05;;;2.53;;
43325;SDS011;28920;59.862;30.636;2022-10-23T01:58:46;3.90;;;2.45;;
43325;SDS011;28920;59.862;30.636;2022-10-23T02:01:17;8.02;;;2.60;;
43325;SDS011;28920;59.862;30.636;2022-10-23T02:03:48;4.97;;;2.87;;
43325;SDS011;28920;59.862;30.636;2022-10-23T02:06:16;6.30;;;3.25;;
43325;SDS011;28920;59.862;30.636;2022-10-23T02:08:44;5.37;;;2.20;;
43325;SDS011;28920;59.862;30.636;2022-10-23T02:11:13;6.07;;;2.70;;
43325;SDS011;28920;59.862;30.636;2022-10-23T02:13:43;5.80;;;2.85;;
43325;SDS011;28920;59.862;30.636;2022-10-23T02:20:38;4.45;;;2.47;;
43325;SDS011;28920;59.862;30.636;2022-10-23T02:23:11;5.25;;;2.95;;
43325;SDS011;28920;59.862;30.636;2022-10-23T02:25:41;4.12;;;2.62;;
43325;SDS011;28920;59.862;30.636;2022-10-23T02:28:11;8.60;;;3.47;;
43325;SDS011;28920;59.862;30.636;2022-10-23T02:30:41;4.65;;;2.70;;
43325;SDS011;28920;59.862;30.636;2022-10-23T02:33:11;4.87;;;3.35;;
43325;SDS011;28920;59.862;30.636;2022-10-23T02:35:40;4.70;;;2.25;;
43325;SDS011;28920;59.862;30.636;2022-10-23T02:42:50;5.90;;;2.92;;
43325;SDS011;28920;59.862;30.636;2022-10-23T02:45:22;5.47;;;3.33;;
43325;SDS011;28920;59.862;30.636;2022-10-23T02:47:52;4.40;;;2.67;;
43325;SDS011;28920;59.862;30.636;2022-10-23T02:50:21;9.73;;;2.62;;
43325;SDS011;28920;59.862;30.636;2022-10-23T02:52:54;7.82;;;3.30;;
43325;SDS011;28920;59.862;30.636;2022-10-23T02:55:26;6.60;;;3.62;;
43325;SDS011;28920;59.862;30.636;2022-10-23T02:58:01;9.27;;;3.95;;
43325;SDS011;28920;59.862;30.636;2022-10-23T03:05:37;6.82;;;2.92;;
43325;SDS011;28920;59.862;30.636;2022-10-23T03:08:05;6.68;;;3.58;;
43325;SDS011;28920;59.862;30.636;2022-10-23T03:10:35;6.37;;;3.42;;
43325;SDS011;28920;59.862;30.636;2022-10-23T03:13:02;6.32;;;3.17;;
43325;SDS011;28920;59.862;30.636;2022-10-23T03:15:30;9.27;;;2.87;;
43325;SDS011;28920;59.862;30.636;2022-10-23T03:17:57;7.60;;;3.15;;
43325;SDS011;28920;59.862;30.636;2022-10-23T03:20:24;7.53;;;3.72;;
43325;SDS011;28920;59.862;30.636;2022-10-23T03:27:03;6.07;;;3.85;;
43325;SDS011;28920;59.862;30.636;2022-10-23T03:29:30;5.12;;;2.78;;
43325;SDS011;28920;59.862;30.636;2022-10-23T03:31:57;6.60;;;3.62;;
43325;SDS011;28920;59.862;30.636;2022-10-23T03:34:24;8.05;;;2.95;;
43325;SDS011;28920;59.862;30.636;2022-10-23T03:36:52;7.55;;;4.35;;
43325;SDS011;28920;59.862;30.636;2022-10-23T03:39:19;6.97;;;3.70;;
43325;SDS011;28920;59.862;30.636;2022-10-23T03:41:46;7.75;;;3.80;;
43325;SDS011;28920;59.862;30.636;2022-10-23T03:49:12;4.03;;;3.35;;
43325;SDS011;28920;59.862;30.636;2022-10-23T03:51:41;5.43;;;3.20;;
43325;SDS011;28920;59.862;30.636;2022-10-23T03:54:08;4.90;;;3.15;;
43325;SDS011;28920;59.862;30.636;2022-10-23T03:56:36;10.75;;;3.50;;
43325;SDS011;28920;59.862;30.636;2022-10-23T03:59:06;7.87;;;3.70;;
43325;SDS011;28920;59.862;30.636;2022-10-23T04:01:32;10.18;;;3.97;;
43325;SDS011;28920;59.862;30.636;2022-10-23T04:04:00;8.73;;;4.00;;
43325;SDS011;28920;59.862;30.636;2022-10-23T04:07:24;11.57;;;4.85;;
43325;SDS011;28920;59.862;30.636;2022-10-23T04:09:53;6.68;;;3.62;;
43325;SDS011;28920;59.862;30.636;2022-10-23T04:12:19;6.80;;;4.25;;
43325;SDS011;28920;59.862;30.636;2022-10-23T04:14:46;7.12;;;3.92;;
43325;SDS011;28920;59.862;30.636;2022-10-23T04:17:13;9.98;;;3.87;;
43325;SDS011;28920;59.862;30.636;2022-10-23T04:19:41;9.55;;;3.30;;
43325;SDS011;28920;59.862;30.636;2022-10-23T04:22:08;6.30;;;3.67;;
43325;SDS011;28920;59.862;30.636;2022-10-23T04:29:33;9.32;;;4.07;;
43325;SDS011;28920;59.862;30.636;2022-10-23T04:32:00;9.38;;;3.67;;
43325;SDS011;28920;59.862;30.636;2022-10-23T04:34:27;8.57;;;4.07;;
43325;SDS011;28920;59.862;30.636;2022-10-23T04:36:54;10.02;;;5.32;;
43325;SDS011;28920;59.862;30.636;2022-10-23T04:39:21;9.38;;;4.18;;
43325;SDS011;28920;59.862;30.636;2022-10-23T04:41:48;7.85;;;3.45;;
43325;SDS011;28920;59.862;30.636;2022-10-23T04:44:15;8.43;;;3.75;;
43325;SDS011;28920;59.862;30.636;2022-10-23T04:51:40;6.78;;;3.35;;
43325;SDS011;28920;59.862;30.636;2022-10-23T04:54:07;7.40;;;3.50;;
43325;SDS011;28920;59.862;30.636;2022-10-23T04:56:35;6.57;;;3.42;;
43325;SDS011;28920;59.862;30.636;2022-10-23T04:59:02;7.10;;;3.58;;
43325;SDS011;28920;59.862;30.636;2022-10-23T05:01:29;6.30;;;3.47;;
43325;SDS011;28920;59.862;30.636;2022-10-23T05:03:57;10.82;;;3.70;;
43325;SDS011;28920;59.862;30.636;2022-10-23T05:06:23;5.72;;;3.35;;
43325;SDS011;28920;59.862;30.636;2022-10-23T05:13:52;5.93;;;3.72;;
43325;SDS011;28920;59.862;30.636;2022-10-23T05:16:24;6.45;;;3.45;;
43325;SDS011;28920;59.862;30.636;2022-10-23T05:18:58;7.82;;;3.60;;
43325;SDS011;28920;59.862;30.636;2022-10-23T05:21:27;7.30;;;4.22;;
43325;SDS011;28920;59.862;30.636;2022-10-23T05:26:27;14.87;;;4.20;;
43325;SDS011;28920;59.862;30.636;2022-10-23T05:28:59;7.82;;;3.70;;
43325;SDS011;28920;59.862;30.636;2022-10-23T05:36:25;9.75;;;6.03;;
43325;SDS011;28920;59.862;30.636;2022-10-23T05:38:54;8.52;;;4.10;;
43325;SDS011;28920;59.862;30.636;2022-10-23T05:41:20;6.68;;;3.95;;
43325;SDS011;28920;59.862;30.636;2022-10-23T05:43:47;6.35;;;3.40;;
43325;SDS011;28920;59.862;30.636;2022-10-23T05:46:15;17.83;;;8.98;;
43325;SDS011;28920;59.862;30.636;2022-10-23T05:48:42;14.70;;;7.75;;
43325;SDS011;28920;59.862;30.636;2022-10-23T05:51:11;10.00;;;6.50;;
43325;SDS011;28920;59.862;30.636;2022-10-23T05:58:43;11.35;;;5.87;;
43325;SDS011;28920;59.862;30.636;2022-10-23T06:01:11;13.02;;;4.62;;
43325;SDS011;28920;59.862;30.636;2022-10-23T06:03:40;6.60;;;3.65;;
43325;SDS011;28920;59.862;30.636;2022-10-23T06:06:08;5.78;;;3.87;;
43325;SDS011;28920;59.862;30.636;2022-10-23T06:08:37;10.52;;;4.62;;
43325;SDS011;28920;59.862;30.636;2022-10-23T06:11:05;8.95;;;5.25;;
43325;SDS011;28920;59.862;30.636;2022-10-23T06:13:32;8.27;;;4.50;;
43325;SDS011;28920;59.862;30.636;2022-10-23T06:20:58;11.77;;;5.80;;
43325;SDS011;28920;59.862;30.636;2022-10-23T06:23:25;10.48;;;6.43;;
43325;SDS011;28920;59.862;30.636;2022-10-23T06:25:54;13.02;;;6.75;;
43325;SDS011;28920;59.862;30.636;2022-10-23T06:28:23;9.35;;;4.87;;
43325;SDS011;28920;59.862;30.636;2022-10-23T06:30:50;9.70;;;5.00;;
43325;SDS011;28920;59.862;30.636;2022-10-23T06:33:16;16.73;;;6.85;;
43325;SDS011;28920;59.862;30.636;2022-10-23T06:35:43;10.18;;;6.50;;
43325;SDS011;28920;59.862;30.636;2022-10-23T06:43:09;13.07;;;7.35;;
43325;SDS011;28920;59.862;30.636;2022-10-23T06:45:39;10.83;;;6.67;;
43325;SDS011;28920;59.862;30.636;2022-10-23T06:48:12;13.65;;;8.10;;
43325;SDS011;28920;59.862;30.636;2022-10-23T06:50:41;13.32;;;6.97;;
43325;SDS011;28920;59.862;30.636;2022-10-23T06:53:09;10.00;;;6.72;;
43325;SDS011;28920;59.862;30.636;2022-10-23T06:55:38;8.50;;;5.32;;
43325;SDS011;28920;59.862;30.636;2022-10-23T06:58:05;6.62;;;4.70;;
43325;SDS011;28920;59.862;30.636;2022-10-23T07:05:35;9.15;;;4.72;;
43325;SDS011;28920;59.862;30.636;2022-10-23T07:08:03;8.20;;;4.93;;
43325;SDS011;28920;59.862;30.636;2022-10-23T07:10:31;9.77;;;5.57;;
43325;SDS011;28920;59.862;30.636;2022-10-23T07:12:58;11.95;;;5.85;;
43325;SDS011;28920;59.862;30.636;2022-10-23T07:15:26;13.10;;;7.50;;
43325;SDS011;28920;59.862;30.636;2022-10-23T07:17:53;11.18;;;6.22;;
43325;SDS011;28920;59.862;30.636;2022-10-23T07:20:21;8.52;;;5.50;;
43325;SDS011;28920;59.862;30.636;2022-10-23T07:27:47;18.62;;;6.78;;
43325;SDS011;28920;59.862;30.636;2022-10-23T07:30:14;8.80;;;5.93;;
43325;SDS011;28920;59.862;30.636;2022-10-23T07:32:42;10.98;;;5.78;;
43325;SDS011;28920;59.862;30.636;2022-10-23T07:35:19;11.52;;;5.85;;
43325;SDS011;28920;59.862;30.636;2022-10-23T07:37:47;10.38;;;5.93;;
43325;SDS011;28920;59.862;30.636;2022-10-23T07:40:15;8.57;;;5.00;;
43325;SDS011;28920;59.862;30.636;2022-10-23T07:42:43;10.43;;;4.97;;
43325;SDS011;28920;59.862;30.636;2022-10-23T07:49:29;9.13;;;4.18;;
43325;SDS011;28920;59.862;30.636;2022-10-23T07:51:56;7.87;;;3.85;;
43325;SDS011;28920;59.862;30.636;2022-10-23T07:54:27;7.32;;;4.43;;
43325;SDS011;28920;59.862;30.636;2022-10-23T07:56:57;9.57;;;5.18;;
43325;SDS011;28920;59.862;30.636;2022-10-23T07:59:25;8.20;;;4.60;;
43325;SDS011;28920;59.862;30.636;2022-10-23T08:01:52;13.73;;;5.03;;
43325;SDS011;28920;59.862;30.636;2022-10-23T08:04:22;9.98;;;5.07;;
43325;SDS011;28920;59.862;30.636;2022-10-23T08:09:29;9.23;;;5.30;;
43325;SDS011;28920;59.862;30.636;2022-10-23T08:11:56;11.23;;;4.32;;
43325;SDS011;28920;59.862;30.636;2022-10-23T08:14:25;12.18;;;4.93;;
43325;SDS011;28920;59.862;30.636;2022-10-23T08:16:52;8.95;;;5.60;;
43325;SDS011;28920;59.862;30.636;2022-10-23T08:19:22;11.88;;;5.97;;
43325;SDS011;28920;59.862;30.636;2022-10-23T08:21:50;8.18;;;4.85;;
43325;SDS011;28920;59.862;30.636;2022-10-23T08:24:19;9.85;;;5.75;;
43325;SDS011;28920;59.862;30.636;2022-10-23T08:31:41;13.40;;;8.65;;
43325;SDS011;28920;59.862;30.636;2022-10-23T08:34:10;12.00;;;5.10;;
43325;SDS011;28920;59.862;30.636;2022-10-23T08:36:38;13.02;;;6.35;;
43325;SDS011;28920;59.862;30.636;2022-10-23T08:39:05;9.77;;;5.32;;
43325;SDS011;28920;59.862;30.636;2022-10-23T08:41:34;16.17;;;8.50;;
43325;SDS011;28920;59.862;30.636;2022-10-23T08:44:06;10.40;;;5.22;;
43325;SDS011;28920;59.862;30.636;2022-10-23T08:46:40;11.02;;;7.30;;
43325;SDS011;28920;59.862;30.636;2022-10-23T08:54:20;9.48;;;5.32;;
43325;SDS011;28920;59.862;30.636;2022-10-23T08:56:51;11.05;;;5.50;;
43325;SDS011;28920;59.862;30.636;2022-10-23T08:59:26;9.25;;;5.05;;
43325;SDS011;28920;59.862;30.636;2022-10-23T09:01:59;11.07;;;6.03;;
43325;SDS011;28920;59.862;30.636;2022-10-23T09:07:02;11.52;;;6.12;;
43325;SDS011;28920;59.862;30.636;2022-10-23T09:12:16;13.52;;;7.97;;
43325;SDS011;28920;59.862;30.636;2022-10-23T09:15:08;16.80;;;8.02;;
43325;SDS011;28920;59.862;30.636;2022-10-23T09:17:44;28.15;;;13.15;;
43325;SDS011;28920;59.862;30.636;2022-10-23T09:20:15;14.25;;;9.32;;
43325;SDS011;28920;59.862;30.636;2022-10-23T09:22:45;17.48;;;9.00;;
43325;SDS011;28920;59.862;30.636;2022-10-23T09:25:17;13.93;;;8.68;;
43325;SDS011;28920;59.862;30.636;2022-10-23T09:32:44;17.70;;;10.80;;
43325;SDS011;28920;59.862;30.636;2022-10-23T09:35:19;17.95;;;8.35;;
43325;SDS011;28920;59.862;30.636;2022-10-23T09:37:47;12.63;;;7.55;;
43325;SDS011;28920;59.862;30.636;2022-10-23T09:40:20;12.52;;;7.22;;
43325;SDS011;28920;59.862;30.636;2022-10-23T09:42:56;13.00;;;7.68;;
43325;SDS011;28920;59.862;30.636;2022-10-23T09:45:27;11.75;;;6.43;;
43325;SDS011;28920;59.862;30.636;2022-10-23T09:53:26;11.00;;;7.25;;
43325;SDS011;28920;59.862;30.636;2022-10-23T09:55:58;11.73;;;7.53;;
43325;SDS011;28920;59.862;30.636;2022-10-23T09:58:29;15.57;;;6.93;;
43325;SDS011;28920;59.862;30.636;2022-10-23T10:01:00;8.82;;;6.18;;
43325;SDS011;28920;59.862;30.636;2022-10-23T10:03:42;15.55;;;7.00;;
43325;SDS011;28920;59.862;30.636;2022-10-23T10:06:17;16.70;;;6.95;;
43325;SDS011;28920;59.862;30.636;2022-10-23T10:08:50;13.27;;;7.35;;
43325;SDS011;28920;59.862;30.636;2022-10-23T10:16:21;13.73;;;8.07;;
43325;SDS011;28920;59.862;30.636;2022-10-23T10:19:01;14.57;;;7.97;;
43325;SDS011;28920;59.862;30.636;2022-10-23T10:21:33;14.27;;;9.52;;
43325;SDS011;28920;59.862;30.636;2022-10-23T10:24:07;14.07;;;8.57;;
43325;SDS011;28920;59.862;30.636;2022-10-23T10:26:44;18.45;;;10.07;;
43325;SDS011;28920;59.862;30.636;2022-10-23T10:29:20;14.57;;;8.50;;
43325;SDS011;28920;59.862;30.636;2022-10-23T10:35:47;13.77;;;9.20;;
43325;SDS011;28920;59.862;30.636;2022-10-23T10:38:26;18.75;;;10.75;;
43325;SDS011;28920;59.862;30.636;2022-10-23T10:41:21;14.87;;;9.45;;
43325;SDS011;28920;59.862;30.636;2022-10-23T10:44:11;13.68;;;9.43;;
43325;SDS011;28920;59.862;30.636;2022-10-23T10:46:48;15.60;;;10.25;;
43325;SDS011;28920;59.862;30.636;2022-10-23T10:49:22;17.45;;;10.13;;
43325;SDS011;28920;59.862;30.636;2022-10-23T10:56:59;18.00;;;12.18;;
43325;SDS011;28920;59.862;30.636;2022-10-23T10:59:29;23.55;;;12.43;;
43325;SDS011;28920;59.862;30.636;2022-10-23T11:02:04;23.60;;;13.93;;
43325;SDS011;28920;59.862;30.636;2022-10-23T11:04:46;30.77;;;14.55;;
43325;SDS011;28920;59.862;30.636;2022-10-23T11:07:19;22.42;;;14.27;;
43325;SDS011;28920;59.862;30.636;2022-10-23T11:09:51;21.75;;;13.15;;
43325;SDS011;28920;59.862;30.636;2022-10-23T11:17:18;24.80;;;15.57;;
43325;SDS011;28920;59.862;30.636;2022-10-23T11:19:53;17.42;;;12.32;;
43325;SDS011;28920;59.862;30.636;2022-10-23T11:22:29;19.37;;;13.05;;
43325;SDS011;28920;59.862;30.636;2022-10-23T11:25:07;20.92;;;12.73;;
43325;SDS011;28920;59.862;30.636;2022-10-23T11:27:54;19.60;;;12.70;;
43325;SDS011;28920;59.862;30.636;2022-10-23T11:30:34;25.33;;;15.57;;
43325;SDS011;28920;59.862;30.636;2022-10-23T11:38:23;26.02;;;15.25;;
43325;SDS011;28920;59.862;30.636;2022-10-23T11:40:53;32.63;;;17.45;;
43325;SDS011;28920;59.862;30.636;2022-10-23T11:43:28;26.10;;;16.95;;
43325;SDS011;28920;59.862;30.636;2022-10-23T11:45:56;24.35;;;16.17;;
43325;SDS011;28920;59.862;30.636;2022-10-23T11:48:34;29.15;;;16.67;;
43325;SDS011;28920;59.862;30.636;2022-10-23T11:51:03;26.23;;;16.65;;
43325;SDS011;28920;59.862;30.636;2022-10-23T11:53:38;30.92;;;17.27;;
43325;SDS011;28920;59.862;30.636;2022-10-23T11:57:16;26.02;;;15.45;;
43325;SDS011;28920;59.862;30.636;2022-10-23T11:59:50;24.33;;;15.82;;
43325;SDS011;28920;59.862;30.636;2022-10-23T12:02:25;28.77;;;15.77;;
43325;SDS011;28920;59.862;30.636;2022-10-23T12:04:57;28.08;;;16.92;;
43325;SDS011;28920;59.862;30.636;2022-10-23T12:07:30;25.55;;;16.65;;
43325;SDS011;28920;59.862;30.636;2022-10-23T12:10:00;25.60;;;17.77;;
43325;SDS011;28920;59.862;30.636;2022-10-23T12:12:31;31.70;;;19.20;;
43325;SDS011;28920;59.862;30.636;2022-10-23T12:23:16;40.55;;;21.98;;
43325;SDS011;28920;59.862;30.636;2022-10-23T12:26:03;35.53;;;22.80;;
43325;SDS011;28920;59.862;30.636;2022-10-23T12:28:39;29.45;;;18.83;;
43325;SDS011;28920;59.862;30.636;2022-10-23T12:31:18;33.50;;;20.42;;
43325;SDS011;28920;59.862;30.636;2022-10-23T12:33:57;33.17;;;19.33;;
43325;SDS011;28920;59.862;30.636;2022-10-23T12:41:27;44.55;;;24.85;;
43325;SDS011;28920;59.862;30.636;2022-10-23T12:43:58;33.00;;;19.17;;
43325;SDS011;28920;59.862;30.636;2022-10-23T12:46:29;28.95;;;16.65;;
43325;SDS011;28920;59.862;30.636;2022-10-23T12:51:24;26.62;;;17.52;;
43325;SDS011;28920;59.862;30.636;2022-10-23T12:53:51;41.90;;;26.50;;
43325;SDS011;28920;59.862;30.636;2022-10-23T12:56:18;27.87;;;18.98;;
43325;SDS011;28920;59.862;30.636;2022-10-23T13:01:25;25.67;;;15.32;;
43325;SDS011;28920;59.862;30.636;2022-10-23T13:03:57;26.10;;;16.63;;
43325;SDS011;28920;59.862;30.636;2022-10-23T13:06:28;26.83;;;15.98;;
43325;SDS011;28920;59.862;30.636;2022-10-23T13:08:55;26.02;;;16.12;;
43325;SDS011;28920;59.862;30.636;2022-10-23T13:11:23;23.98;;;15.48;;
43325;SDS011;28920;59.862;30.636;2022-10-23T13:13:53;28.02;;;16.52;;
43325;SDS011;28920;59.862;30.636;2022-10-23T13:16:21;30.23;;;16.77;;
43325;SDS011;28920;59.862;30.636;2022-10-23T13:23:36;28.77;;;17.85;;
43325;SDS011;28920;59.862;30.636;2022-10-23T13:26:19;46.60;;;29.27;;
43325;SDS011;28920;59.862;30.636;2022-10-23T13:28:55;42.75;;;25.25;;
43325;SDS011;28920;59.862;30.636;2022-10-23T13:31:25;33.92;;;23.23;;
43325;SDS011;28920;59.862;30.636;2022-10-23T13:34:04;35.33;;;22.02;;
43325;SDS011;28920;59.862;30.636;2022-10-23T13:44:46;33.25;;;19.80;;
43325;SDS011;28920;59.862;30.636;2022-10-23T13:47:13;33.22;;;20.70;;
43325;SDS011;28920;59.862;30.636;2022-10-23T13:49:42;42.42;;;25.85;;
43325;SDS011;28920;59.862;30.636;2022-10-23T13:52:09;38.10;;;21.87;;
43325;SDS011;28920;59.862;30.636;2022-10-23T13:54:39;32.65;;;19.90;;
43325;SDS011;28920;59.862;30.636;2022-10-23T13:57:08;29.67;;;18.40;;
43325;SDS011;28920;59.862;30.636;2022-10-23T13:59:39;40.78;;;22.15;;
43325;SDS011;28920;59.862;30.636;2022-10-23T14:07:05;30.75;;;18.92;;
43325;SDS011;28920;59.862;30.636;2022-10-23T14:09:32;29.92;;;18.42;;
43325;SDS011;28920;59.862;30.636;2022-10-23T14:11:59;33.60;;;18.65;;
43325;SDS011;28920;59.862;30.636;2022-10-23T14:14:26;33.33;;;19.90;;
43325;SDS011;28920;59.862;30.636;2022-10-23T14:16:54;25.65;;;17.73;;
43325;SDS011;28920;59.862;30.636;2022-10-23T14:19:21;30.67;;;17.73;;
43325;SDS011;28920;59.862;30.636;2022-10-23T14:21:48;29.12;;;19.10;;
43325;SDS011;28920;59.862;30.636;2022-10-23T14:28:32;33.42;;;18.25;;
43325;SDS011;28920;59.862;30.636;2022-10-23T14:31:02;35.08;;;19.33;;
43325;SDS011;28920;59.862;30.636;2022-10-23T14:33:30;30.48;;;19.23;;
43325;SDS011;28920;59.862;30.636;2022-10-23T14:35:57;30.92;;;18.42;;
43325;SDS011;28920;59.862;30.636;2022-10-23T14:38:24;26.98;;;17.67;;
43325;SDS011;28920;59.862;30.636;2022-10-23T14:40:52;27.92;;;18.55;;
43325;SDS011;28920;59.862;30.636;2022-10-23T14:43:19;36.63;;;19.60;;
43325;SDS011;28920;59.862;30.636;2022-10-23T14:46:58;29.50;;;18.12;;
43325;SDS011;28920;59.862;30.636;2022-10-23T14:49:25;23.87;;;16.10;;
43325;SDS011;28920;59.862;30.636;2022-10-23T14:51:53;25.25;;;16.17;;
43325;SDS011;28920;59.862;30.636;2022-10-23T14:54:20;25.58;;;15.57;;
43325;SDS011;28920;59.862;30.636;2022-10-23T14:56:47;25.60;;;15.57;;
43325;SDS011;28920;59.862;30.636;2022-10-23T14:59:14;24.83;;;14.48;;
43325;SDS011;28920;59.862;30.636;2022-10-23T15:01:42;21.30;;;14.13;;
43325;SDS011;28920;59.862;30.636;2022-10-23T15:08:25;25.85;;;17.15;;
43325;SDS011;28920;59.862;30.636;2022-10-23T15:10:53;24.95;;;18.00;;
43325;SDS011;28920;59.862;30.636;2022-10-23T15:13:20;25.83;;;15.73;;
43325;SDS011;28920;59.862;30.636;2022-10-23T15:15:47;25.50;;;16.58;;
43325;SDS011;28920;59.862;30.636;2022-10-23T15:18:14;21.23;;;14.20;;
43325;SDS011;28920;59.862;30.636;2022-10-23T15:20:50;25.27;;;15.25;;
43325;SDS011;28920;59.862;30.636;2022-10-23T15:23:18;25.33;;;13.65;;
43325;SDS011;28920;59.862;30.636;2022-10-23T15:30:43;22.30;;;13.30;;
43325;SDS011;28920;59.862;30.636;2022-10-23T15:33:11;19.48;;;13.15;;
43325;SDS011;28920;59.862;30.636;2022-10-23T15:35:38;26.52;;;14.40;;
43325;SDS011;28920;59.862;30.636;2022-10-23T15:38:05;19.77;;;13.62;;
43325;SDS011;28920;59.862;30.636;2022-10-23T15:40:32;20.48;;;13.55;;
43325;SDS011;28920;59.862;30.636;2022-10-23T15:42:59;16.33;;;10.98;;
43325;SDS011;28920;59.862;30.636;2022-10-23T15:45:27;16.50;;;10.90;;
43325;SDS011;28920;59.862;30.636;2022-10-23T15:52:25;14.45;;;9.68;;
43325;SDS011;28920;59.862;30.636;2022-10-23T15:54:53;13.27;;;9.95;;
43325;SDS011;28920;59.862;30.636;2022-10-23T15:57:20;14.07;;;9.80;;
43325;SDS011;28920;59.862;30.636;2022-10-23T15:59:47;16.08;;;9.63;;
43325;SDS011;28920;59.862;30.636;2022-10-23T16:02:16;12.55;;;9.50;;
43325;SDS011;28920;59.862;30.636;2022-10-23T16:04:43;14.82;;;9.05;;
43325;SDS011;28920;59.862;30.636;2022-10-23T16:07:10;14.32;;;9.77;;
43325;SDS011;28920;59.862;30.636;2022-10-23T16:14:08;14.50;;;8.60;;
43325;SDS011;28920;59.862;30.636;2022-10-23T16:16:39;17.45;;;9.57;;
43325;SDS011;28920;59.862;30.636;2022-10-23T16:19:06;15.55;;;10.38;;
43325;SDS011;28920;59.862;30.636;2022-10-23T16:21:34;14.15;;;10.20;;
43325;SDS011;28920;59.862;30.636;2022-10-23T16:24:03;10.63;;;7.95;;
43325;SDS011;28920;59.862;30.636;2022-10-23T16:26:32;12.20;;;7.72;;
43325;SDS011;28920;59.862;30.636;2022-10-23T16:29:01;13.65;;;8.10;;
43325;SDS011;28920;59.862;30.636;2022-10-23T16:34:10;8.15;;;5.95;;
43325;SDS011;28920;59.862;30.636;2022-10-23T16:36:38;6.85;;;5.47;;
43325;SDS011;28920;59.862;30.636;2022-10-23T16:39:06;6.78;;;5.20;;
43325;SDS011;28920;59.862;30.636;2022-10-23T16:41:47;8.40;;;5.62;;
43325;SDS011;28920;59.862;30.636;2022-10-23T16:44:16;8.65;;;5.55;;
43325;SDS011;28920;59.862;30.636;2022-10-23T16:46:46;9.32;;;5.80;;
43325;SDS011;28920;59.862;30.636;2022-10-23T16:49:13;13.00;;;7.75;;
43325;SDS011;28920;59.862;30.636;2022-10-23T16:56:07;7.65;;;4.72;;
43325;SDS011;28920;59.862;30.636;2022-10-23T16:58:37;9.55;;;5.10;;
43325;SDS011;28920;59.862;30.636;2022-10-23T17:01:06;7.35;;;4.85;;
43325;SDS011;28920;59.862;30.636;2022-10-23T17:03:35;7.40;;;4.10;;
43325;SDS011;28920;59.862;30.636;2022-10-23T17:06:05;6.15;;;4.05;;
43325;SDS011;28920;59.862;30.636;2022-10-23T17:08:34;6.47;;;3.83;;
43325;SDS011;28920;59.862;30.636;2022-10-23T17:11:05;6.95;;;4.03;;
43325;SDS011;28920;59.862;30.636;2022-10-23T17:18:34;7.07;;;4.78;;
43325;SDS011;28920;59.862;30.636;2022-10-23T17:21:02;5.43;;;3.97;;
43325;SDS011;28920;59.862;30.636;2022-10-23T17:23:29;7.05;;;5.35;;
43325;SDS011;28920;59.862;30.636;2022-10-23T17:25:57;7.87;;;4.70;;
43325;SDS011;28920;59.862;30.636;2022-10-23T17:28:25;5.95;;;4.45;;
43325;SDS011;28920;59.862;30.636;2022-10-23T17:30:53;6.12;;;3.53;;
43325;SDS011;28920;59.862;30.636;2022-10-23T17:33:20;7.12;;;3.75;;
43325;SDS011;28920;59.862;30.636;2022-10-23T17:39:46;7.53;;;4.10;;
43325;SDS011;28920;59.862;30.636;2022-10-23T17:42:13;4.03;;;3.03;;
43325;SDS011;28920;59.862;30.636;2022-10-23T17:44:41;5.05;;;3.92;;
43325;SDS011;28920;59.862;30.636;2022-10-23T17:47:08;6.37;;;4.40;;
43325;SDS011;28920;59.862;30.636;2022-10-23T17:49:35;7.50;;;4.12;;
43325;SDS011;28920;59.862;30.636;2022-10-23T17:52:03;7.55;;;4.10;;
43325;SDS011;28920;59.862;30.636;2022-10-23T17:54:30;5.75;;;4.10;;
43325;SDS011;28920;59.862;30.636;2022-10-23T18:01:14;6.45;;;3.30;;
43325;SDS011;28920;59.862;30.636;2022-10-23T18:03:45;6.37;;;3.78;;
43325;SDS011;28920;59.862;30.636;2022-10-23T18:06:14;5.53;;;3.55;;
43325;SDS011;28920;59.862;30.636;2022-10-23T18:08:43;5.18;;;3.30;;
43325;SDS011;28920;59.862;30.636;2022-10-23T18:11:13;4.45;;;2.92;;
43325;SDS011;28920;59.862;30.636;2022-10-23T18:13:42;6.82;;;2.87;;
43325;SDS011;28920;59.862;30.636;2022-10-23T18:16:11;7.12;;;3.25;;
43325;SDS011;28920;59.862;30.636;2022-10-23T18:23:37;3.75;;;2.20;;
43325;SDS011;28920;59.862;30.636;2022-10-23T18:26:05;5.50;;;2.33;;
43325;SDS011;28920;59.862;30.636;2022-10-23T18:28:41;4.53;;;2.42;;
43325;SDS011;28920;59.862;30.636;2022-10-23T18:31:09;2.72;;;1.67;;
43325;SDS011;28920;59.862;30.636;2022-10-23T18:33:39;3.33;;;2.67;;
43325;SDS011;28920;59.862;30.636;2022-10-23T18:36:11;3.35;;;2.28;;
43325;SDS011;28920;59.862;30.636;2022-10-23T18:38:40;3.33;;;2.12;;